createdAt,value
2019-01-30T00:00:39.329Z,131.63
2019-01-30T00:03:45.343Z,129.07
2019-01-30T00:06:51.339Z,135.70
2019-01-30T00:09:57.198Z,140.53
2019-01-30T00:13:03.073Z,146.37
2019-01-30T00:16:09.055Z,129.60
2019-01-30T00:19:15.097Z,143.63
2019-01-30T00:22:21.056Z,144.10
2019-01-30T00:25:27.024Z,153.67
2019-01-30T00:28:32.884Z,148.17
2019-01-30T00:31:38.977Z,163.00
2019-01-30T00:34:44.820Z,159.53
2019-01-30T00:37:50.672Z,149.33
2019-01-30T00:40:56.697Z,153.00
2019-01-30T00:44:02.616Z,162.17
2019-01-30T00:47:15.837Z,151.07
2019-01-30T00:50:17.299Z,170.50
2019-01-30T00:53:23.253Z,166.77
2019-01-30T00:56:29.125Z,158.40
2019-01-30T00:59:35.059Z,160.97
2019-01-30T01:02:41.031Z,162.13
2019-01-30T01:05:47.093Z,167.47
2019-01-30T01:08:54.096Z,161.83
2019-01-30T01:11:59.943Z,157.07
2019-01-30T01:15:08.099Z,151.17
2019-01-30T01:18:14.054Z,149.47
2019-01-30T01:21:20.006Z,133.70
2019-01-30T01:24:25.822Z,132.17
2019-01-30T01:27:31.782Z,118.20
2019-01-30T01:30:37.776Z,121.13
2019-01-30T01:33:43.719Z,108.80
2019-01-30T01:36:49.563Z,113.17
2019-01-30T01:39:55.423Z,134.23
2019-01-30T01:43:01.314Z,134.47
2019-01-30T01:46:07.331Z,142.10
2019-01-30T01:49:13.210Z,123.47
2019-01-30T01:52:19.231Z,122.70
2019-01-30T01:55:25.078Z,119.03
2019-01-30T01:58:31.079Z,121.90
2019-01-30T02:01:36.944Z,111.77
2019-01-30T02:04:42.802Z,119.63
2019-01-30T02:07:48.806Z,111.47
2019-01-30T02:10:54.674Z,109.23
2019-01-30T02:14:00.538Z,131.10
2019-01-30T02:17:06.489Z,111.67
2019-01-30T02:20:18.032Z,119.07
2019-01-30T02:23:23.981Z,105.40
2019-01-30T02:26:29.809Z,162.23
2019-01-30T02:29:35.689Z,168.83
2019-01-30T02:32:41.519Z,102.63
2019-01-30T02:35:47.498Z,166.33
2019-01-30T02:38:53.545Z,103.47
2019-01-30T02:41:59.906Z,98.47
2019-01-30T02:45:06.712Z,96.57
2019-01-30T02:48:12.581Z,98.23
2019-01-30T02:51:18.545Z,101.70
2019-01-30T02:54:24.420Z,95.83
2019-01-30T02:57:30.285Z,130.40
2019-01-30T03:00:37.985Z,108.67
2019-01-30T03:03:43.878Z,100.37
2019-01-30T03:06:49.843Z,105.63
2019-01-30T03:09:55.702Z,98.20
2019-01-30T03:13:01.589Z,108.23
2019-01-30T03:16:07.438Z,137.20
2019-01-30T03:19:13.338Z,115.43
2019-01-30T03:22:19.200Z,127.77
2019-01-30T03:25:25.937Z,117.27
2019-01-30T03:28:31.800Z,123.83
2019-01-30T03:31:37.709Z,114.87
2019-01-30T03:34:43.611Z,122.33
2019-01-30T03:37:49.811Z,116.53
2019-01-30T03:40:55.831Z,109.20
2019-01-30T03:44:01.717Z,119.53
2019-01-30T03:47:07.680Z,127.93
2019-01-30T03:50:14.074Z,126.60
2019-01-30T03:53:20.045Z,129.47
2019-01-30T03:56:25.894Z,129.93
2019-01-30T03:59:31.725Z,134.93
2019-01-30T04:02:37.584Z,134.07
2019-01-30T04:05:43.418Z,141.33
2019-01-30T04:08:49.394Z,140.03
2019-01-30T04:11:55.263Z,142.83
2019-01-30T04:15:01.235Z,150.73
2019-01-30T04:18:07.084Z,140.57
2019-01-30T04:21:12.920Z,146.53
2019-01-30T04:24:18.780Z,150.60
2019-01-30T04:27:24.644Z,145.20
2019-01-30T04:30:30.519Z,149.97
2019-01-30T04:33:36.458Z,149.63
2019-01-30T04:36:42.310Z,144.07
2019-01-30T04:39:48.196Z,133.50
2019-01-30T04:42:54.046Z,143.90
2019-01-30T04:46:00.108Z,149.07
2019-01-30T04:49:06.065Z,132.13
2019-01-30T04:52:11.926Z,144.87
2019-01-30T04:55:18.310Z,147.53
2019-01-30T04:58:24.159Z,137.17
2019-01-30T05:01:29.995Z,140.13
2019-01-30T05:04:35.930Z,139.03
2019-01-30T05:07:42.044Z,144.53
2019-01-30T05:10:47.982Z,135.57
2019-01-30T05:13:53.947Z,131.43
2019-01-30T05:16:59.965Z,134.30
2019-01-30T05:20:09.584Z,133.23
2019-01-30T05:23:14.387Z,142.13
2019-01-30T05:26:20.230Z,139.03
2019-01-30T05:29:26.177Z,136.00
2019-01-30T05:32:32.021Z,142.13
2019-01-30T05:35:38.240Z,127.83
2019-01-30T05:38:44.075Z,126.07
2019-01-30T05:41:49.925Z,140.70
2019-01-30T05:44:55.877Z,130.17
2019-01-30T05:48:01.737Z,135.60
2019-01-30T05:51:07.704Z,123.57
2019-01-30T05:54:13.541Z,131.93
2019-01-30T05:57:19.468Z,142.63
2019-01-30T06:00:34.428Z,131.50
2019-01-30T06:03:40.282Z,127.43
2019-01-30T06:06:46.322Z,132.20
2019-01-30T06:09:52.271Z,132.73
2019-01-30T06:12:58.221Z,128.50
2019-01-30T06:16:04.204Z,123.37
2019-01-30T06:19:10.302Z,123.00
2019-01-30T06:22:16.221Z,122.20
2019-01-30T06:25:22.334Z,119.43
2019-01-30T06:28:29.373Z,120.10
2019-01-30T06:31:35.542Z,130.30
2019-01-30T06:34:41.356Z,132.37
2019-01-30T06:37:47.472Z,133.23
2019-01-30T06:40:53.424Z,160.03
2019-01-30T06:44:00.402Z,161.83
2019-01-30T06:47:06.541Z,147.53
2019-01-30T06:50:13.161Z,152.53
2019-01-30T06:53:19.017Z,119.87
2019-01-30T06:56:24.910Z,127.90
2019-01-30T06:59:30.738Z,129.43
2019-01-30T07:02:36.718Z,125.57
2019-01-30T07:05:42.769Z,101.77
2019-01-30T07:08:48.715Z,109.73
2019-01-30T07:11:54.612Z,111.87
2019-01-30T07:15:00.563Z,112.83
2019-01-30T07:18:07.517Z,125.17
2019-01-30T07:21:13.519Z,135.80
2019-01-30T07:24:19.427Z,159.93
2019-01-30T07:27:25.421Z,165.57
2019-01-30T07:30:36.339Z,176.80
2019-01-30T07:33:42.145Z,165.20
2019-01-30T07:36:47.987Z,161.30
2019-01-30T07:39:54.057Z,159.90
2019-01-30T07:42:59.924Z,138.33
2019-01-30T07:46:06.241Z,141.17
2019-01-30T07:49:12.096Z,150.10
2019-01-30T07:52:18.126Z,150.60
2019-01-30T07:55:24.197Z,147.83
2019-01-30T07:58:30.118Z,153.20
2019-01-30T08:01:36.094Z,154.03
2019-01-30T08:04:42.056Z,164.43
2019-01-30T08:07:49.041Z,177.53
2019-01-30T08:10:54.889Z,155.83
2019-01-30T08:14:01.925Z,138.67
2019-01-30T08:17:08.182Z,142.43
2019-01-30T08:20:17.070Z,129.23
2019-01-30T08:23:23.144Z,135.33
2019-01-30T08:26:29.205Z,131.03
2019-01-30T08:29:35.316Z,128.30
2019-01-30T08:32:41.343Z,129.77
2019-01-30T08:35:47.277Z,136.27
2019-01-30T08:38:54.116Z,122.57
2019-01-30T08:42:00.208Z,126.73
2019-01-30T08:45:07.361Z,122.87
2019-01-30T08:48:13.340Z,133.07
2019-01-30T08:51:19.212Z,119.07
2019-01-30T08:54:25.216Z,117.57
2019-01-30T08:57:31.282Z,111.57
2019-01-30T09:00:37.206Z,123.23
2019-01-30T09:03:43.116Z,112.17
2019-01-30T09:06:49.014Z,108.70
2019-01-30T09:09:54.981Z,108.33
2019-01-30T09:13:00.891Z,104.50
2019-01-30T09:16:07.105Z,96.93
2019-01-30T09:19:13.092Z,109.93
2019-01-30T09:22:18.974Z,98.00
2019-01-30T09:25:26.845Z,100.37
2019-01-30T09:28:32.903Z,112.20
2019-01-30T09:31:38.752Z,114.93
2019-01-30T09:34:44.613Z,116.63
2019-01-30T09:37:50.523Z,127.27
2019-01-30T09:40:56.582Z,113.37
2019-01-30T09:44:02.471Z,93.53
2019-01-30T09:47:08.364Z,91.93
2019-01-30T09:50:17.090Z,100.17
2019-01-30T09:53:23.163Z,98.40
2019-01-30T09:56:29.057Z,93.93
2019-01-30T09:59:35.050Z,85.03
2019-01-30T10:02:41.079Z,95.53
2019-01-30T10:05:47.171Z,97.57
2019-01-30T10:08:53.047Z,78.50
2019-01-30T10:11:58.955Z,84.53
2019-01-30T10:15:06.387Z,76.97
2019-01-30T10:18:14.038Z,81.53
2019-01-30T10:21:20.065Z,97.63
2019-01-30T10:24:28.928Z,99.97
2019-01-30T10:27:34.184Z,104.83
2019-01-30T10:30:42.061Z,114.43
2019-01-30T10:33:47.908Z,112.00
2019-01-30T10:36:53.878Z,118.13
2019-01-30T10:40:00.317Z,119.03
2019-01-30T10:43:06.867Z,105.90
2019-01-30T10:46:12.748Z,105.83
2019-01-30T10:49:18.750Z,109.60
2019-01-30T10:52:24.711Z,114.47
2019-01-30T10:55:32.036Z,102.57
2019-01-30T10:58:38.057Z,113.30
2019-01-30T11:01:44.226Z,102.77
2019-01-30T11:04:51.088Z,91.50
2019-01-30T11:07:57.229Z,101.53
2019-01-30T11:11:08.066Z,104.93
2019-01-30T11:14:10.831Z,104.97
2019-01-30T11:17:16.794Z,108.07
2019-01-30T11:20:23.215Z,101.03
2019-01-30T11:23:29.352Z,94.30
2019-01-30T11:26:36.545Z,99.60
2019-01-30T11:29:42.851Z,109.37
2019-01-30T11:32:48.716Z,100.70
2019-01-30T11:35:54.706Z,101.33
2019-01-30T11:39:00.598Z,113.60
2019-01-30T11:42:08.165Z,176.80
2019-01-30T11:45:17.573Z,124.13
2019-01-30T11:48:23.524Z,108.63
2019-01-30T11:51:29.490Z,118.20
2019-01-30T11:54:38.953Z,109.13
2019-01-30T11:57:43.195Z,100.03
2019-01-30T12:01:00.237Z,74.47
2019-01-30T12:04:06.343Z,86.60
2019-01-30T12:07:12.359Z,80.70
2019-01-30T12:10:18.353Z,72.87
2019-01-30T12:13:24.477Z,74.07
2019-01-30T12:16:30.530Z,74.63
2019-01-30T12:19:36.395Z,67.67
2019-01-30T12:22:42.511Z,60.03
2019-01-30T12:25:48.611Z,56.00
2019-01-30T12:28:54.466Z,72.97
2019-01-30T12:32:00.340Z,78.23
2019-01-30T12:35:06.717Z,70.67
2019-01-30T12:38:13.790Z,70.87
2019-01-30T12:41:19.798Z,64.37
2019-01-30T12:44:27.161Z,53.03
2019-01-30T12:47:33.066Z,33.03
2019-01-30T12:50:39.243Z,35.77
2019-01-30T12:53:46.769Z,35.03
2019-01-30T12:56:52.665Z,56.07
2019-01-30T12:59:58.776Z,70.97
2019-01-30T13:03:04.985Z,67.40
2019-01-30T13:06:10.852Z,72.67
2019-01-30T13:09:16.754Z,71.17
2019-01-30T13:12:22.714Z,65.87
2019-01-30T13:15:29.096Z,78.80
2019-01-30T13:18:36.067Z,77.97
2019-01-30T13:21:41.935Z,77.20
2019-01-30T13:24:47.874Z,79.97
2019-01-30T13:27:53.951Z,202.90
2019-01-30T13:30:59.884Z,109.30
2019-01-30T13:34:06.013Z,75.50
2019-01-30T13:37:11.902Z,74.90
2019-01-30T13:40:24.136Z,76.43
2019-01-30T13:43:30.144Z,78.13
2019-01-30T13:46:36.245Z,75.30
2019-01-30T13:49:42.122Z,67.57
2019-01-30T13:52:48.184Z,79.40
2019-01-30T13:55:54.196Z,76.47
2019-01-30T13:59:00.208Z,76.07
2019-01-30T14:02:06.295Z,70.33
2019-01-30T14:05:12.445Z,76.13
2019-01-30T14:08:18.436Z,75.53
2019-01-30T14:11:24.411Z,74.93
2019-01-30T14:14:30.421Z,81.20
2019-01-30T14:17:36.494Z,85.60
2019-01-30T14:20:42.485Z,83.50
2019-01-30T14:23:48.498Z,130.33
2019-01-30T14:26:54.530Z,146.43
2019-01-30T14:30:00.383Z,108.53
2019-01-30T14:33:06.605Z,105.60
2019-01-30T14:36:12.579Z,98.50
2019-01-30T14:39:18.545Z,92.33
2019-01-30T14:42:24.577Z,86.60
2019-01-30T14:45:30.597Z,78.23
2019-01-30T14:48:36.563Z,77.93
2019-01-30T14:51:42.427Z,75.83
2019-01-30T14:54:50.409Z,83.10
2019-01-30T14:57:56.655Z,69.40
2019-01-30T15:01:02.701Z,71.00
2019-01-30T15:04:08.577Z,74.67
2019-01-30T15:07:14.603Z,70.50
2019-01-30T15:10:22.072Z,70.70
2019-01-30T15:13:28.090Z,75.50
2019-01-30T15:16:33.953Z,78.87
2019-01-30T15:19:39.886Z,87.90
2019-01-30T15:22:45.836Z,73.83
2019-01-30T15:25:52.920Z,77.87
2019-01-30T15:28:58.868Z,110.53
2019-01-30T15:32:05.156Z,93.93
2019-01-30T15:35:11.212Z,79.67
2019-01-30T15:38:20.828Z,95.27
2019-01-30T15:41:26.515Z,97.80
2019-01-30T15:44:32.377Z,44.03
2019-01-30T15:47:39.348Z,19.23
2019-01-30T15:50:45.549Z,12.87
2019-01-30T15:53:51.424Z,7.77
2019-01-30T15:56:57.313Z,9.73
2019-01-30T16:00:03.206Z,8.57
2019-01-30T16:03:09.306Z,13.30
2019-01-30T16:06:15.194Z,14.37
2019-01-30T16:09:21.070Z,50.10
2019-01-30T16:12:26.938Z,50.10
2019-01-30T16:15:36.083Z,17.43
2019-01-30T16:18:42.072Z,31.13
2019-01-30T16:21:48.016Z,26.43
2019-01-30T16:24:53.950Z,19.10
2019-01-30T16:27:59.793Z,31.37
2019-01-30T16:31:05.887Z,34.03
2019-01-30T16:34:11.859Z,19.57
2019-01-30T16:37:17.820Z,30.07
2019-01-30T16:40:23.925Z,31.63
2019-01-30T16:43:29.935Z,34.77
2019-01-30T16:46:36.058Z,34.47
2019-01-30T16:49:41.905Z,36.77
2019-01-30T16:52:47.995Z,35.90
2019-01-30T16:55:53.937Z,42.83
2019-01-30T16:59:00.019Z,80.00
2019-01-30T17:02:06.307Z,100.10
2019-01-30T17:05:14.034Z,147.07
2019-01-30T17:08:19.852Z,112.10
2019-01-30T17:11:25.728Z,136.93
2019-01-30T17:14:34.591Z,80.40
2019-01-30T17:17:40.475Z,73.60
2019-01-30T17:20:46.642Z,52.40
2019-01-30T17:23:52.533Z,54.73
2019-01-30T17:27:01.827Z,51.87
2019-01-30T17:30:11.754Z,46.73
2019-01-30T17:33:18.634Z,50.77
2019-01-30T17:36:26.017Z,40.97
2019-01-30T17:39:31.885Z,62.53
2019-01-30T17:42:37.880Z,47.93
2019-01-30T17:45:43.852Z,49.47
2019-01-30T17:48:49.971Z,46.03
2019-01-30T17:51:55.817Z,55.73
2019-01-30T17:55:04.503Z,58.23
2019-01-30T17:58:11.884Z,55.60
2019-01-30T18:01:18.166Z,67.07
2019-01-30T18:04:24.156Z,52.50
2019-01-30T18:07:30.307Z,42.67
2019-01-30T18:10:36.237Z,63.03
2019-01-30T18:13:45.070Z,52.80
2019-01-30T18:16:50.059Z,50.07
2019-01-30T18:19:55.940Z,42.67
2019-01-30T18:23:02.041Z,46.40
2019-01-30T18:26:08.164Z,48.93
2019-01-30T18:29:14.040Z,55.27
2019-01-30T18:32:19.934Z,86.93
2019-01-30T18:35:26.006Z,113.83
2019-01-30T18:38:32.051Z,138.63
2019-01-30T18:41:38.023Z,96.40
2019-01-30T18:44:44.056Z,85.77
2019-01-30T18:47:50.134Z,86.30
2019-01-30T18:50:56.916Z,81.17
2019-01-30T18:54:04.093Z,92.23
2019-01-30T18:57:10.063Z,93.77
2019-01-30T19:00:27.666Z,98.67
2019-01-30T19:03:33.520Z,67.93
2019-01-30T19:06:39.397Z,67.17
2019-01-30T19:09:45.452Z,60.47
2019-01-30T19:12:51.564Z,60.10
2019-01-30T19:15:57.518Z,60.10
2019-01-30T19:19:03.522Z,59.50
2019-01-30T19:22:10.324Z,52.10
2019-01-30T19:25:16.584Z,64.00
2019-01-30T19:28:22.521Z,43.23
2019-01-30T19:31:28.419Z,51.63
2019-01-30T19:34:34.261Z,55.97
2019-01-30T19:37:40.323Z,69.57
2019-01-30T19:40:46.174Z,66.67
2019-01-30T19:43:52.041Z,57.97
2019-01-30T19:46:58.091Z,45.07
2019-01-30T19:50:04.344Z,28.50
2019-01-30T19:53:10.669Z,24.33
2019-01-30T19:56:16.627Z,28.30
2019-01-30T19:59:22.497Z,24.37
2019-01-30T20:02:28.360Z,28.93
2019-01-30T20:05:34.263Z,25.23
2019-01-30T20:08:40.328Z,43.90
2019-01-30T20:11:46.256Z,32.83
2019-01-30T20:14:52.317Z,26.03
2019-01-30T20:17:58.323Z,26.43
2019-01-30T20:21:04.293Z,28.33
2019-01-30T20:24:10.178Z,29.13
2019-01-30T20:27:16.033Z,29.53
2019-01-30T20:30:22.925Z,29.67
2019-01-30T20:33:28.923Z,31.13
2019-01-30T20:36:34.891Z,73.07
2019-01-30T20:39:40.844Z,76.30
2019-01-30T20:42:46.970Z,51.17
2019-01-30T20:45:52.941Z,66.23
2019-01-30T20:48:58.874Z,75.53
2019-01-30T20:52:04.853Z,74.67
2019-01-30T20:55:11.253Z,75.67
2019-01-30T20:58:17.312Z,88.17
2019-01-30T21:01:23.273Z,95.53
2019-01-30T21:04:29.115Z,93.83
2019-01-30T21:07:37.239Z,100.80
2019-01-30T21:10:43.347Z,97.80
2019-01-30T21:13:49.238Z,103.83
2019-01-30T21:16:55.241Z,103.10
2019-01-30T21:20:01.310Z,100.57
2019-01-30T21:23:07.827Z,103.23
2019-01-30T21:26:13.958Z,93.43
2019-01-30T21:29:19.822Z,91.13
2019-01-30T21:32:25.697Z,85.90
2019-01-30T21:35:31.770Z,93.70
2019-01-30T21:38:37.613Z,88.83
2019-01-30T21:41:43.500Z,90.97
2019-01-30T21:44:49.404Z,79.43
2019-01-30T21:47:55.455Z,83.33
2019-01-30T21:51:01.421Z,78.83
2019-01-30T21:54:08.643Z,77.23
2019-01-30T21:57:14.575Z,85.13
2019-01-30T22:00:22.596Z,78.33
2019-01-30T22:03:28.534Z,79.93
2019-01-30T22:06:34.402Z,82.37
2019-01-30T22:09:40.259Z,85.30
2019-01-30T22:12:46.127Z,76.27
2019-01-30T22:15:52.071Z,76.23
2019-01-30T22:18:58.039Z,74.73
2019-01-30T22:22:04.035Z,80.13
2019-01-30T22:25:19.928Z,67.60
2019-01-30T22:28:19.250Z,77.23
2019-01-30T22:31:25.111Z,75.20
2019-01-30T22:34:30.995Z,77.57
2019-01-30T22:37:36.865Z,66.80
2019-01-30T22:40:42.814Z,66.43
2019-01-30T22:43:48.703Z,70.77
2019-01-30T22:46:54.585Z,64.13
2019-01-30T22:50:00.494Z,64.97
2019-01-30T22:53:06.667Z,60.57
2019-01-30T22:56:12.684Z,58.73
2019-01-30T22:59:18.551Z,58.23
2019-01-30T23:02:25.094Z,63.43
2019-01-30T23:06:03.080Z,56.53
2019-01-30T23:09:43.925Z,63.97
2019-01-30T23:13:20.397Z,61.43
2019-01-30T23:17:05.933Z,58.43
2019-01-30T23:20:18.362Z,53.07
2019-01-30T23:23:55.878Z,56.47
2019-01-30T23:27:10.518Z,54.67
2019-01-30T23:30:42.110Z,56.07
2019-01-30T23:34:30.290Z,61.27
2019-01-30T23:38:41.236Z,69.83
2019-01-30T23:42:36.551Z,62.63
2019-01-30T23:45:54.051Z,60.17
2019-01-30T23:49:41.116Z,65.73
2019-01-30T23:53:24.557Z,60.60
2019-01-30T23:57:09.956Z,60.27
